createdAt,value
2023-04-18T12:34:35.337Z,19.8134
2023-04-18T12:35:36.319Z,19.6722
2023-04-18T12:36:37.353Z,20.3562
2023-04-18T12:37:38.362Z,21.0123
2023-04-18T12:38:39.370Z,21.5240
2023-04-18T12:39:40.314Z,21.9516
2023-04-18T12:40:41.289Z,22.1902
2023-04-18T12:41:42.255Z,22.2860
2023-04-18T12:42:43.221Z,22.3715
2023-04-18T12:43:44.212Z,22.4527
2023-04-18T12:44:46.956Z,22.4382
2023-04-18T12:45:46.326Z,22.3719
2023-04-18T12:46:47.351Z,22.2822
2023-04-18T12:47:48.393Z,22.1481
2023-04-18T12:48:49.378Z,22.0801
2023-04-18T12:49:50.438Z,22.1041
2023-04-18T12:50:51.374Z,22.2041
2023-04-18T12:51:52.379Z,22.4213
2023-04-18T12:52:53.429Z,22.5723
2023-04-18T12:53:54.405Z,22.6365
2023-04-18T12:54:55.362Z,22.6155
2023-04-18T12:55:56.351Z,22.6306
2023-04-18T12:56:57.327Z,22.7180
2023-04-18T12:57:58.369Z,22.8680
2023-04-18T12:58:59.300Z,22.9998
2023-04-18T13:00:00.310Z,23.1560
2023-04-18T13:01:01.309Z,23.4083
2023-04-18T13:02:02.317Z,23.6536
2023-04-18T13:03:03.499Z,23.8665
2023-04-18T13:04:12.447Z,23.9560
2023-04-18T13:05:06.341Z,23.9276
2023-04-18T13:06:08.410Z,23.8512
2023-04-18T13:07:09.337Z,23.7415
2023-04-18T13:08:17.054Z,23.6647
2023-04-18T13:09:12.363Z,23.6623
2023-04-18T13:10:13.453Z,23.7687
2023-04-18T13:11:14.471Z,23.9612
2023-04-18T13:12:15.410Z,24.1320
2023-04-18T13:13:16.480Z,24.2050
2023-04-18T13:14:17.465Z,24.1502
2023-04-18T13:15:18.428Z,23.9777
2023-04-18T13:16:19.491Z,23.8039
2023-04-18T13:17:20.490Z,23.7301
2023-04-18T13:18:21.473Z,23.7999
2023-04-18T13:19:22.415Z,23.9383
2023-04-18T13:20:23.493Z,24.1318
2023-04-18T13:21:24.421Z,24.2852
2023-04-18T13:22:25.412Z,24.3976
2023-04-18T13:23:26.419Z,24.5377
2023-04-18T13:24:27.383Z,24.6816
2023-04-18T13:25:28.390Z,24.8297
2023-04-18T13:26:29.336Z,24.9586
2023-04-18T13:27:30.317Z,24.9867
2023-04-18T13:28:31.009Z,24.9518
2023-04-18T13:29:31.197Z,24.9139
2023-04-18T13:30:32.038Z,24.9032
2023-04-18T13:31:32.827Z,24.9445
2023-04-18T13:32:33.676Z,25.0212
2023-04-18T13:33:34.396Z,25.0762
2023-04-18T13:34:35.129Z,25.1408
2023-04-18T13:35:35.889Z,25.2396
2023-04-18T13:36:36.635Z,25.4230
2023-04-18T13:37:37.630Z,25.5930
2023-04-18T13:38:38.400Z,25.7198
2023-04-18T13:39:39.644Z,25.8092
2023-04-18T13:40:40.361Z,25.9041
2023-04-18T13:41:41.131Z,26.0174
2023-04-18T13:42:41.836Z,26.1133
2023-04-18T13:43:42.829Z,26.1197
2023-04-18T13:44:43.583Z,26.1796
2023-04-18T13:45:44.439Z,26.3005
2023-04-18T13:46:45.417Z,26.3800
2023-04-18T13:47:46.131Z,26.4940
2023-04-18T13:48:46.887Z,26.6403
2023-04-18T13:49:47.601Z,26.8028
2023-04-18T13:50:48.344Z,26.9155
2023-04-18T13:51:49.115Z,27.0332
2023-04-18T13:52:49.808Z,27.1164
2023-04-18T13:53:50.579Z,27.1629
2023-04-18T13:54:51.343Z,27.1832
2023-04-18T13:55:52.061Z,27.1808
2023-04-18T13:56:52.803Z,27.2095
2023-04-18T13:57:53.561Z,27.2319
2023-04-18T13:58:54.290Z,27.2477
2023-04-18T13:59:55.010Z,27.2470
2023-04-18T14:00:56.318Z,27.2622
2023-04-18T14:01:57.167Z,27.2595
2023-04-18T14:02:58.059Z,27.3434
2023-04-18T14:03:59.037Z,27.4781
2023-04-18T14:05:00.037Z,27.6368
2023-04-18T14:06:00.859Z,27.7802
2023-04-18T14:07:01.659Z,27.8774
2023-04-18T14:08:02.397Z,27.9596
2023-04-18T14:09:03.369Z,28.0079
2023-04-18T14:10:04.106Z,28.0216
2023-04-18T14:11:04.873Z,28.0619
2023-04-18T14:12:05.593Z,28.1381
2023-04-18T14:13:06.334Z,28.2088
2023-04-18T14:14:07.073Z,28.2381
2023-04-18T14:15:07.890Z,28.2549
2023-04-18T14:16:08.686Z,28.2350
2023-04-18T14:17:09.426Z,28.2094
2023-04-18T14:18:10.205Z,28.1477
2023-04-18T14:19:11.036Z,28.1270
2023-04-18T14:20:11.818Z,28.1250
2023-04-18T14:21:12.592Z,28.1462
2023-04-18T14:22:14.375Z,28.0758
2023-04-18T14:23:15.100Z,27.9722
2023-04-18T14:24:15.870Z,27.9358
2023-04-18T14:25:16.615Z,27.9326
2023-04-18T14:26:17.358Z,28.0213
2023-04-18T14:27:18.105Z,28.1438
2023-04-18T14:28:18.844Z,28.2655
2023-04-18T14:29:19.582Z,28.4112
2023-04-18T14:30:20.318Z,28.4615
2023-04-18T14:31:21.125Z,28.3567
2023-04-18T14:32:21.902Z,28.1076
2023-04-18T14:33:22.633Z,27.7751
2023-04-18T14:34:23.390Z,27.4436
2023-04-18T14:35:24.118Z,27.2601
2023-04-18T14:36:24.854Z,27.1430
2023-04-18T14:37:25.613Z,27.1361
2023-04-18T14:38:26.346Z,27.1473
2023-04-18T14:39:27.119Z,27.1994
2023-04-18T14:40:27.888Z,27.2297
2023-04-18T14:41:28.631Z,27.3108
2023-04-18T14:42:29.410Z,27.4392
2023-04-18T14:43:30.156Z,27.5636
2023-04-18T14:44:30.949Z,27.6513
2023-04-18T14:45:31.693Z,27.7181
2023-04-18T14:46:32.489Z,27.7350
2023-04-18T14:47:33.274Z,27.8089
2023-04-18T14:48:34.010Z,27.9153
2023-04-18T14:49:34.758Z,28.0028
2023-04-18T14:50:35.501Z,28.0228
2023-04-18T14:51:36.306Z,28.1086
2023-04-18T14:52:37.058Z,28.0457
2023-04-18T14:53:37.805Z,27.8371
2023-04-18T14:54:38.581Z,27.5547
2023-04-18T14:55:39.317Z,27.2254
2023-04-18T14:56:40.178Z,27.0759
2023-04-18T14:57:40.939Z,27.0355
2023-04-18T14:58:41.696Z,26.9962
2023-04-18T14:59:42.480Z,26.9816
2023-04-18T15:00:43.218Z,26.9946
2023-04-18T15:01:43.974Z,27.0680
2023-04-18T15:02:44.987Z,27.1766
2023-04-18T15:03:46.007Z,27.3332
2023-04-18T15:04:46.976Z,27.4884
2023-04-18T15:05:47.756Z,27.5681
2023-04-18T15:06:48.543Z,27.5790
2023-04-18T15:07:49.275Z,27.6176
2023-04-18T15:08:50.018Z,27.7212
2023-04-18T15:09:50.806Z,27.8978
2023-04-18T15:10:51.570Z,28.0970
2023-04-18T15:11:59.846Z,28.2188
2023-04-18T15:13:00.586Z,28.3336
2023-04-18T15:14:01.807Z,28.4699
2023-04-18T15:15:02.559Z,28.5899
2023-04-18T15:16:03.383Z,28.6993
2023-04-18T15:17:04.162Z,28.7717
2023-04-18T15:18:04.992Z,28.8941
2023-04-18T15:19:05.707Z,28.9857
2023-04-18T15:20:06.477Z,29.0061
2023-04-18T15:21:07.208Z,29.0201
2023-04-18T15:22:07.949Z,29.0463
2023-04-18T15:23:08.693Z,29.0501
2023-04-18T15:24:09.450Z,29.0334
2023-04-18T15:25:10.278Z,29.0019
2023-04-18T15:26:10.990Z,29.0201
2023-04-18T15:28:12.106Z,28.8747
2023-04-18T15:28:12.106Z,28.9148
2023-04-18T15:29:14.364Z,28.9246
2023-04-18T15:30:15.108Z,28.9143
2023-04-18T15:31:15.986Z,28.8409
2023-04-18T15:32:16.875Z,28.7829
2023-04-18T15:33:17.577Z,28.8462
2023-04-18T15:34:18.321Z,28.8574
2023-04-18T15:35:19.078Z,28.9333
2023-04-18T15:36:19.838Z,28.9639
2023-04-18T15:37:20.582Z,28.9682
2023-04-18T15:38:21.325Z,28.9355
2023-04-18T15:39:22.044Z,28.9472
2023-04-18T15:40:22.863Z,28.8036
2023-04-18T15:41:23.650Z,28.5742
2023-04-18T15:42:24.409Z,28.2132
2023-04-18T15:43:25.202Z,27.8137
2023-04-18T15:44:25.965Z,27.4360
2023-04-18T15:45:26.785Z,27.0753
2023-04-18T15:46:27.549Z,26.7854
2023-04-18T15:47:28.293Z,26.4896
2023-04-18T15:48:29.078Z,26.2233
2023-04-18T15:49:29.857Z,26.0822
2023-04-18T15:50:32.160Z,26.0732
2023-04-18T15:51:31.651Z,26.1060
2023-04-18T15:52:32.460Z,26.0490
2023-04-18T15:53:33.247Z,25.9142
2023-04-18T15:54:34.025Z,25.8384
2023-04-18T15:55:34.827Z,25.8031
2023-04-18T15:56:35.572Z,25.8058
2023-04-18T15:57:36.355Z,25.8558
2023-04-18T15:58:37.115Z,25.8632
2023-04-18T15:59:37.927Z,25.8742
2023-04-18T16:00:43.186Z,25.8671
2023-04-18T16:01:45.835Z,25.8301
2023-04-18T16:02:47.124Z,25.7966
2023-04-18T16:03:48.072Z,25.7694
2023-04-18T16:04:48.884Z,25.7527
2023-04-18T16:05:49.648Z,25.7950
2023-04-18T16:06:50.425Z,25.8432
2023-04-18T16:07:51.254Z,25.8699
2023-04-18T16:08:52.007Z,25.8504
2023-04-18T16:09:52.828Z,25.8046
2023-04-18T16:10:53.599Z,25.6203
2023-04-18T16:11:54.386Z,25.3381
2023-04-18T16:12:55.157Z,25.0602
2023-04-18T16:13:55.947Z,24.7699
2023-04-18T16:14:56.702Z,24.5220
2023-04-18T16:15:57.746Z,24.4560
2023-04-18T16:16:58.547Z,24.3743
2023-04-18T16:17:59.377Z,24.3044
2023-04-18T16:19:00.124Z,24.2112
2023-04-18T16:20:00.867Z,24.0282
2023-04-18T16:21:01.765Z,23.8543
2023-04-18T16:22:02.531Z,23.7917
2023-04-18T16:23:03.279Z,23.8053
2023-04-18T16:24:04.292Z,23.8345
2023-04-18T16:25:05.083Z,23.8196
2023-04-18T16:26:05.888Z,23.8154
2023-04-18T16:27:06.630Z,23.8246
2023-04-18T16:28:07.397Z,23.7741
2023-04-18T16:29:08.189Z,23.6941
2023-04-18T16:30:08.986Z,23.6063
2023-04-18T16:31:09.994Z,23.5002
2023-04-18T16:32:10.761Z,23.4133
2023-04-18T16:33:11.627Z,23.3263
2023-04-18T16:34:12.511Z,23.2551
2023-04-18T16:35:13.378Z,23.2098
2023-04-18T16:36:14.473Z,23.1883
2023-04-18T16:37:15.225Z,23.1383
2023-04-18T16:38:16.023Z,23.1378
2023-04-18T16:39:16.846Z,23.1788
2023-04-18T16:40:17.624Z,23.1487
2023-04-18T16:41:18.414Z,23.0599
2023-04-18T16:42:19.196Z,22.9657
2023-04-18T16:43:19.948Z,22.8978
2023-04-18T16:44:20.720Z,22.8404
2023-04-18T16:45:21.474Z,22.8234
2023-04-18T16:46:22.322Z,22.8031
2023-04-18T16:47:23.111Z,22.7842
2023-04-18T16:48:23.899Z,22.7206
2023-04-18T16:49:24.686Z,22.6527
2023-04-18T16:50:25.500Z,22.6013
2023-04-18T16:51:26.317Z,22.5352
2023-04-18T16:52:27.105Z,22.4154
2023-04-18T16:53:28.206Z,22.3107
2023-04-18T16:54:28.962Z,22.2293
2023-04-18T16:55:29.759Z,22.1658
2023-04-18T16:56:30.726Z,22.1209
2023-04-18T16:57:31.508Z,22.0777
2023-04-18T16:58:32.269Z,22.0485
2023-04-18T16:59:33.058Z,22.0067
2023-04-18T17:00:33.821Z,21.9237
2023-04-18T17:01:34.705Z,21.8557
2023-04-18T17:02:35.522Z,21.8196
2023-04-18T17:03:36.798Z,21.7971
2023-04-18T17:04:37.756Z,21.7283
2023-04-18T17:05:38.573Z,21.6662
2023-04-18T17:06:39.398Z,21.6051
2023-04-18T17:07:40.174Z,21.4975
2023-04-18T17:08:40.980Z,21.4040
2023-04-18T17:09:41.734Z,21.3050
2023-04-18T17:10:42.542Z,21.2076
2023-04-18T17:11:43.482Z,21.0960
2023-04-18T17:12:44.294Z,20.9867
2023-04-18T17:13:45.054Z,20.8646
2023-04-18T17:14:45.854Z,20.7294
2023-04-18T17:15:46.699Z,20.5860
2023-04-18T17:16:47.736Z,20.4532
2023-04-18T17:17:48.953Z,20.2940
2023-04-18T17:18:49.963Z,20.1432
2023-04-18T17:19:50.729Z,20.0247
2023-04-18T17:20:51.517Z,19.9000
2023-04-18T17:21:52.351Z,19.7637
2023-04-18T17:22:53.117Z,19.6549
2023-04-18T17:23:53.893Z,19.5427
2023-04-18T17:24:54.676Z,19.4350
2023-04-18T17:25:55.780Z,19.3226
2023-04-18T17:26:56.570Z,19.2013
2023-04-18T17:27:57.413Z,19.0853
2023-04-18T17:28:57.309Z,18.9883
2023-04-18T17:29:58.086Z,18.8797
2023-04-18T17:30:59.115Z,18.7745
2023-04-18T17:31:59.910Z,18.6763
2023-04-18T17:33:00.712Z,18.5729
2023-04-18T17:34:01.596Z,18.4560
2023-04-18T17:35:02.351Z,18.3522
2023-04-18T17:36:04.319Z,18.2385
2023-04-18T17:37:03.234Z,18.1105
2023-04-18T17:38:04.024Z,17.9762
2023-04-18T17:39:04.805Z,17.8500
2023-04-18T17:40:05.588Z,17.7291
2023-04-18T17:41:06.370Z,17.6020
2023-04-18T17:42:07.172Z,17.4759
2023-04-18T17:43:07.958Z,17.3578
2023-04-18T17:44:08.836Z,17.2460
2023-04-18T17:45:09.603Z,17.1195
2023-04-18T17:46:17.490Z,17.0101
2023-04-18T17:47:18.401Z,16.8988
2023-04-18T17:48:26.930Z,16.8031
2023-04-18T17:49:20.637Z,16.6905
2023-04-18T17:50:21.414Z,16.5958
2023-04-18T17:51:22.426Z,16.4947
2023-04-18T17:52:23.227Z,16.4038
2023-04-18T17:53:24.034Z,16.3043
2023-04-18T17:54:24.833Z,16.2108
2023-04-18T17:55:25.637Z,16.1246
2023-04-18T17:56:26.423Z,16.0387
2023-04-18T17:57:27.235Z,15.9465
2023-04-18T17:58:27.995Z,15.8520
2023-04-18T17:59:28.773Z,15.7792
2023-04-18T18:00:29.557Z,15.6917
2023-04-18T18:01:30.474Z,15.5991
2023-04-18T18:02:31.471Z,15.5193
2023-04-18T18:03:32.498Z,15.4484
2023-04-18T18:04:33.467Z,15.3697
2023-04-18T18:05:34.341Z,15.2973
2023-04-18T18:06:35.119Z,15.2171
2023-04-18T18:07:35.906Z,15.1340
2023-04-18T18:08:37.072Z,15.0538
2023-04-18T18:09:37.867Z,14.9794
2023-04-18T18:10:38.617Z,14.9127
2023-04-18T18:11:39.384Z,14.8457
2023-04-18T18:12:40.381Z,14.7747
2023-04-18T18:13:41.180Z,14.7108
2023-04-18T18:14:41.994Z,14.6450
2023-04-18T18:15:42.744Z,14.5726
2023-04-18T18:16:43.567Z,14.5047
2023-04-18T18:17:44.407Z,14.4416
2023-04-18T18:18:45.235Z,14.3782
2023-04-18T18:19:46.028Z,14.3192
2023-04-18T18:20:46.793Z,14.2647
2023-04-18T18:21:47.588Z,14.2143
2023-04-18T18:22:48.373Z,14.1652
2023-04-18T18:23:49.153Z,14.1153
2023-04-18T18:24:49.928Z,14.0648
2023-04-18T18:25:50.711Z,14.0157
2023-04-18T18:26:51.832Z,13.9668
2023-04-18T18:27:52.676Z,13.9115
2023-04-18T18:28:53.418Z,13.8574
2023-04-18T18:29:54.198Z,13.8000
2023-04-18T18:30:54.990Z,13.7422
2023-04-18T18:31:55.721Z,13.7011
2023-04-18T18:32:56.528Z,13.6555
2023-04-18T18:33:57.312Z,13.6065
2023-04-18T18:34:58.110Z,13.5500
2023-04-18T18:35:58.880Z,13.5012
2023-04-18T18:36:59.653Z,13.4568
2023-04-18T18:38:00.702Z,13.4217
2023-04-18T18:39:01.485Z,13.3814
2023-04-18T18:40:02.261Z,13.3373
2023-04-18T18:41:03.926Z,13.2929
2023-04-18T18:42:04.719Z,13.2535
2023-04-18T18:43:05.538Z,13.2168
2023-04-18T18:44:06.292Z,13.1792
2023-04-18T18:45:07.048Z,13.1442
2023-04-18T18:46:07.856Z,13.1028
2023-04-18T18:47:08.606Z,13.0608
2023-04-18T18:48:09.644Z,13.0325
2023-04-18T18:49:10.430Z,12.9993
2023-04-18T18:50:11.177Z,12.9652
2023-04-18T18:51:11.989Z,12.9362
2023-04-18T18:52:12.794Z,12.9089
2023-04-18T18:53:13.575Z,12.8772
2023-04-18T18:54:14.347Z,12.8445
2023-04-18T18:55:15.154Z,12.8116
2023-04-18T18:56:15.925Z,12.7749
2023-04-18T18:57:16.683Z,12.7478
2023-04-18T18:58:17.477Z,12.7238
2023-04-18T18:59:18.250Z,12.7033
2023-04-18T19:00:19.032Z,12.6748
2023-04-18T19:01:19.839Z,12.6431
2023-04-18T19:02:20.818Z,12.6149
2023-04-18T19:03:21.885Z,12.5871
2023-04-18T19:04:22.869Z,12.5612
2023-04-18T19:05:23.889Z,12.5346
2023-04-18T19:06:24.660Z,12.5028
2023-04-18T19:07:25.525Z,12.4757
2023-04-18T19:08:26.854Z,12.4446
2023-04-18T19:09:27.600Z,12.4086
2023-04-18T19:10:28.366Z,12.3877
2023-04-18T19:11:29.174Z,12.3636
2023-04-18T19:12:29.920Z,12.3399
2023-04-18T19:13:30.872Z,12.3164
2023-04-18T19:14:31.634Z,12.2893
2023-04-18T19:15:32.408Z,12.2674
2023-04-18T19:16:33.239Z,12.2473
2023-04-18T19:17:34.034Z,12.2280
2023-04-18T19:18:34.804Z,12.2071
2023-04-18T19:19:35.572Z,12.1790
2023-04-18T19:20:36.394Z,12.1576
2023-04-18T19:21:37.206Z,12.1390
2023-04-18T19:22:38.006Z,12.1192
2023-04-18T19:23:38.857Z,12.1020
2023-04-18T19:24:39.630Z,12.0821
2023-04-18T19:25:40.448Z,12.0631
2023-04-18T19:26:41.212Z,12.0408
2023-04-18T19:27:41.996Z,12.0145
2023-04-18T19:28:42.784Z,11.9925
2023-04-18T19:29:43.575Z,11.9740
2023-04-18T19:30:44.376Z,11.9571
2023-04-18T19:31:45.143Z,11.9442
2023-04-18T19:32:45.956Z,11.9263
2023-04-18T19:33:46.729Z,11.9013
2023-04-18T19:34:47.542Z,11.8867
2023-04-18T19:35:48.333Z,11.8691
2023-04-18T19:36:49.109Z,11.8423
2023-04-18T19:37:49.886Z,11.8192
2023-04-18T19:38:50.706Z,11.7950
2023-04-18T19:39:51.495Z,11.7714
2023-04-18T19:40:52.275Z,11.7527
2023-04-18T19:41:53.039Z,11.7314
2023-04-18T19:42:54.073Z,11.7128
2023-04-18T19:43:54.862Z,11.6832
2023-04-18T19:44:55.636Z,11.6656
2023-04-18T19:45:56.469Z,11.6430
2023-04-18T19:46:57.240Z,11.6278
2023-04-18T19:47:58.075Z,11.6181
2023-04-18T19:48:58.833Z,11.6065
2023-04-18T19:49:59.619Z,11.5899
2023-04-18T19:51:00.396Z,11.5704
2023-04-18T19:52:01.209Z,11.5491
2023-04-18T19:53:02.016Z,11.5299
2023-04-18T19:54:02.815Z,11.5149
2023-04-18T19:55:03.586Z,11.4969
2023-04-18T19:56:04.352Z,11.4744
2023-04-18T19:57:05.118Z,11.4550
2023-04-18T19:58:05.914Z,11.4381
2023-04-18T19:59:06.701Z,11.4162
2023-04-18T20:00:07.460Z,11.3956
2023-04-18T20:01:08.311Z,11.3797
2023-04-18T20:02:09.133Z,11.3558
2023-04-18T20:03:10.064Z,11.3322
2023-04-18T20:04:11.162Z,11.3107
2023-04-18T20:05:12.133Z,11.2922
2023-04-18T20:06:13.031Z,11.2729
2023-04-18T20:07:13.786Z,11.2523
2023-04-18T20:08:14.581Z,11.2322
2023-04-18T20:09:15.636Z,11.2208
2023-04-18T20:10:16.853Z,11.2059
2023-04-18T20:11:17.609Z,11.1956
2023-04-18T20:12:18.415Z,11.1840
2023-04-18T20:13:19.418Z,11.1630
2023-04-18T20:14:20.198Z,11.1368
2023-04-18T20:15:20.997Z,11.1177
2023-04-18T20:16:21.782Z,11.1072
2023-04-18T20:17:22.592Z,11.0848
2023-04-18T20:18:23.435Z,11.0690
2023-04-18T20:19:24.244Z,11.0488
2023-04-18T20:20:25.003Z,11.0275
2023-04-18T20:21:25.754Z,11.0090
2023-04-18T20:22:26.548Z,10.9848
2023-04-18T20:23:27.564Z,10.9718
2023-04-18T20:24:28.380Z,10.9562
2023-04-18T20:25:29.210Z,10.9444
2023-04-18T20:26:29.952Z,10.9384
2023-04-18T20:27:30.744Z,10.9212
2023-04-18T20:28:38.644Z,10.9081
2023-04-18T20:29:39.444Z,10.8878
2023-04-18T20:30:40.260Z,10.8682
2023-04-18T20:31:41.026Z,10.8573
2023-04-18T20:32:41.851Z,10.8425
2023-04-18T20:33:42.585Z,10.8269
2023-04-18T20:34:51.940Z,10.8076
2023-04-18T20:35:52.733Z,10.7786
2023-04-18T20:36:53.516Z,10.7600
2023-04-18T20:37:54.306Z,10.7465
2023-04-18T20:38:55.095Z,10.7378
2023-04-18T20:39:55.898Z,10.7227
2023-04-18T20:40:56.660Z,10.6988
2023-04-18T20:41:57.537Z,10.6804
2023-04-18T20:42:58.429Z,10.6631
2023-04-18T20:43:59.198Z,10.6529
2023-04-18T20:44:59.956Z,10.6447
2023-04-18T20:46:00.764Z,10.6389
2023-04-18T20:47:01.541Z,10.6311
2023-04-18T20:48:02.614Z,10.6124
2023-04-18T20:49:03.372Z,10.5878
2023-04-18T20:50:04.176Z,10.5675
2023-04-18T20:51:04.979Z,10.5523
2023-04-18T20:52:05.769Z,10.5418
2023-04-18T20:53:06.529Z,10.5272
2023-04-18T20:54:07.305Z,10.5094
2023-04-18T20:55:08.089Z,10.4891
2023-04-18T20:56:08.951Z,10.4711
2023-04-18T20:57:09.714Z,10.4548
2023-04-18T20:58:10.523Z,10.4386
2023-04-18T20:59:11.310Z,10.4219
2023-04-18T21:00:12.068Z,10.4066
2023-04-18T21:01:12.898Z,10.3928
2023-04-18T21:02:13.795Z,10.3813
2023-04-18T21:03:14.667Z,10.3696
2023-04-18T21:04:15.923Z,10.3572
2023-04-18T21:05:17.557Z,10.3444
2023-04-18T21:06:18.326Z,10.3344
2023-04-18T21:07:19.097Z,10.3191
2023-04-18T21:08:20.145Z,10.3071
2023-04-18T21:09:20.936Z,10.2958
2023-04-18T21:10:21.701Z,10.2866
2023-04-18T21:11:22.453Z,10.2781
2023-04-18T21:12:23.248Z,10.2751
2023-04-18T21:13:24.035Z,10.2637
2023-04-18T21:14:24.824Z,10.2504
2023-04-18T21:15:25.872Z,10.2363
2023-04-18T21:16:26.699Z,10.2176
2023-04-18T21:17:27.473Z,10.2047
2023-04-18T21:18:28.514Z,10.1915
2023-04-18T21:19:29.299Z,10.1773
2023-04-18T21:20:30.117Z,10.1615
2023-04-18T21:21:30.910Z,10.1563
2023-04-18T21:22:31.663Z,10.1484
2023-04-18T21:23:32.458Z,10.1412
2023-04-18T21:24:33.212Z,10.1295
2023-04-18T21:25:34.225Z,10.1251
2023-04-18T21:26:35.021Z,10.1161
2023-04-18T21:27:35.802Z,10.0989
2023-04-18T21:28:36.790Z,10.0781
2023-04-18T21:29:37.553Z,10.0564
2023-04-18T21:30:38.345Z,10.0340
2023-04-18T21:31:39.171Z,10.0198
2023-04-18T21:32:39.927Z,10.0123
2023-04-18T21:33:40.691Z,10.0047
2023-04-18T21:34:42.420Z,9.9985
2023-04-18T21:35:43.187Z,9.9878
2023-04-18T21:36:44.002Z,9.9725
2023-04-18T21:37:44.754Z,9.9575
2023-04-18T21:38:45.533Z,9.9419
2023-04-18T21:39:46.311Z,9.9276
2023-04-18T21:40:47.080Z,9.9108
2023-04-18T21:41:47.858Z,9.8895
2023-04-18T21:42:49.881Z,9.8749
2023-04-18T21:43:50.732Z,9.8633
2023-04-18T21:44:51.489Z,9.8547
2023-04-18T21:45:52.366Z,9.8417
2023-04-18T21:46:53.114Z,9.8258
2023-04-18T21:47:54.166Z,9.8107
2023-04-18T21:48:54.916Z,9.7974
2023-04-18T21:49:55.708Z,9.7865
2023-04-18T21:50:56.712Z,9.7753
2023-04-18T21:51:57.486Z,9.7634
2023-04-18T21:52:58.290Z,9.7481
2023-04-18T21:53:59.080Z,9.7333
2023-04-18T21:54:59.860Z,9.7210
2023-04-18T21:56:00.640Z,9.7020
2023-04-18T21:57:01.423Z,9.6819
2023-04-18T21:58:03.226Z,9.6690
2023-04-18T21:59:04.023Z,9.6557
2023-04-18T22:00:04.778Z,9.6370
2023-04-18T22:01:05.847Z,9.6210
2023-04-18T22:02:06.845Z,9.6093
2023-04-18T22:03:07.901Z,9.6026
2023-04-18T22:04:08.884Z,9.5905
2023-04-18T22:05:09.765Z,9.5759
2023-04-18T22:06:10.558Z,9.5616
2023-04-18T22:07:11.340Z,9.5506
2023-04-18T22:08:12.155Z,9.5364
2023-04-18T22:09:12.967Z,9.5171
2023-04-18T22:10:13.747Z,9.5048
2023-04-18T22:11:14.526Z,9.4928
2023-04-18T22:12:15.301Z,9.4836
2023-04-18T22:13:16.103Z,9.4766
2023-04-18T22:14:17.019Z,9.4633
2023-04-18T22:15:17.801Z,9.4515
2023-04-18T22:16:18.829Z,9.4407
2023-04-18T22:17:19.628Z,9.4302
2023-04-18T22:18:20.420Z,9.4126
2023-04-18T22:19:21.230Z,9.3976
2023-04-18T22:20:22.022Z,9.3836
2023-04-18T22:21:22.823Z,9.3735
2023-04-18T22:22:23.668Z,9.3587
2023-04-18T22:23:24.491Z,9.3462
2023-04-18T22:24:25.289Z,9.3379
2023-04-18T22:25:26.104Z,9.3295
2023-04-18T22:26:26.915Z,9.3174
2023-04-18T22:27:27.719Z,9.3112
2023-04-18T22:28:28.787Z,9.3095
2023-04-18T22:29:29.583Z,9.2961
2023-04-18T22:30:30.473Z,9.2870
2023-04-18T22:31:31.388Z,9.2775
2023-04-18T22:32:32.200Z,9.2724
2023-04-18T22:33:32.955Z,9.2678
2023-04-18T22:34:33.787Z,9.2595
2023-04-18T22:35:34.622Z,9.2535
2023-04-18T22:36:35.982Z,9.2415
2023-04-18T22:37:36.772Z,9.2245
2023-04-18T22:38:37.590Z,9.2107
2023-04-18T22:39:38.422Z,9.1889
2023-04-18T22:40:39.241Z,9.1819
2023-04-18T22:41:40.089Z,9.1832
2023-04-18T22:42:40.891Z,9.1691
2023-04-18T22:43:41.735Z,9.1613
2023-04-18T22:44:42.553Z,9.1492
2023-04-18T22:45:43.435Z,9.1413
2023-04-18T22:46:44.281Z,9.1216
2023-04-18T22:47:45.250Z,9.1156
2023-04-18T22:48:46.138Z,9.1042
2023-04-18T22:49:46.925Z,9.0996
2023-04-18T22:50:47.723Z,9.0979
2023-04-18T22:51:48.586Z,9.0924
2023-04-18T22:52:49.437Z,9.0820
2023-04-18T22:53:50.288Z,9.0853
2023-04-18T22:54:51.135Z,9.0918
2023-04-18T22:55:52.164Z,9.0877
2023-04-18T22:56:52.991Z,9.0930
2023-04-18T22:57:53.795Z,9.0989
2023-04-18T22:58:54.633Z,9.1145
2023-04-18T22:59:55.425Z,9.1317
2023-04-18T23:00:56.254Z,9.1443
2023-04-18T23:01:57.138Z,9.1610
2023-04-18T23:02:58.361Z,9.1769
2023-04-18T23:03:59.266Z,9.1899
2023-04-18T23:05:00.144Z,9.1968
2023-04-18T23:06:01.036Z,9.2178
2023-04-18T23:07:01.881Z,9.2404
2023-04-18T23:08:02.991Z,9.2513
2023-04-18T23:09:03.904Z,9.2637
2023-04-18T23:10:04.725Z,9.2793
2023-04-18T23:11:05.551Z,9.2976
2023-04-18T23:12:06.406Z,9.3106
2023-04-18T23:13:07.232Z,9.3205
2023-04-18T23:14:08.035Z,9.3302
2023-04-18T23:15:08.874Z,9.3401
2023-04-18T23:16:09.942Z,9.3530
2023-04-18T23:17:10.824Z,9.3592
2023-04-18T23:18:11.892Z,9.3675
2023-04-18T23:19:12.722Z,9.3764
2023-04-18T23:20:13.557Z,9.3891
2023-04-18T23:21:14.353Z,9.3941
2023-04-18T23:22:15.154Z,9.3957
2023-04-18T23:23:15.976Z,9.4054
2023-04-18T23:24:16.962Z,9.4205
2023-04-18T23:25:17.838Z,9.4304
2023-04-18T23:26:18.920Z,9.4339
2023-04-18T23:27:19.782Z,9.4386
2023-04-18T23:28:20.736Z,9.4427
2023-04-18T23:29:21.517Z,9.4484
2023-04-18T23:30:22.353Z,9.4571
2023-04-18T23:31:23.193Z,9.4608
2023-04-18T23:32:24.108Z,9.4697
2023-04-18T23:33:24.944Z,9.4807
2023-04-18T23:34:25.741Z,9.4886
2023-04-18T23:35:26.534Z,9.4960
2023-04-18T23:36:27.379Z,9.5004
2023-04-18T23:37:28.213Z,9.5056
2023-04-18T23:38:29.016Z,9.5146
2023-04-18T23:39:29.829Z,9.5299
2023-04-18T23:40:30.668Z,9.5448
2023-04-18T23:41:31.470Z,9.5588
2023-04-18T23:42:32.293Z,9.5682
2023-04-18T23:43:33.347Z,9.5735
2023-04-18T23:44:34.175Z,9.5811
2023-04-18T23:45:35.011Z,9.5899
2023-04-18T23:46:36.704Z,9.6021
2023-04-18T23:47:37.643Z,9.6057
2023-04-18T23:48:40.208Z,9.6071
2023-04-18T23:49:41.014Z,9.6110
2023-04-18T23:50:41.853Z,9.6164
2023-04-18T23:51:42.676Z,9.6242
2023-04-18T23:52:43.546Z,9.6344
2023-04-18T23:53:44.651Z,9.6412
2023-04-18T23:54:45.474Z,9.6447
2023-04-18T23:55:46.288Z,9.6495
2023-04-18T23:56:47.099Z,9.6492
2023-04-18T23:57:47.951Z,9.6450
2023-04-18T23:58:48.774Z,9.6502
2023-04-18T23:59:49.584Z,9.6489
